Hawk Springs, Wyoming
Current Conditions -  °F | °C
As of 5:53 AM on Sunday 23 Nov 2014 (Local Time) from KTOR Reporting Station
Clear Clear  
Wind Chill: 22°   Ceiling: Unl
Heat Index: 29°   Visibility: 10mi
Dew Point: 21°   Wind: 7mph
Humidity: 72%   Direction: 300°WNW
Pressure: 29.74"   Gusts: NA
Location:  41.79°N, 104.27°W
Report Text: KTOR 231253Z AUTO 30006KT 10SM CLR M02/M06 A2974 RMK AO2 SLP078 T10171061
Loading
Personal Weather Stations






























Interactive Weather Map New forecast layout! Learn more

10-Day Weather Forecast

Advertisements
Track Severe Weather on mobile